createdAt,value
2023-04-22T00:00:03.554Z,0.10
2023-04-22T00:01:03.242Z,0.11
2023-04-22T00:01:43.291Z,0.16
2023-04-22T00:02:24.201Z,0.10
2023-04-22T00:03:08.619Z,0.10
2023-04-22T00:03:51.345Z,0.10
2023-04-22T00:04:39.457Z,0.10
2023-04-22T00:05:33.212Z,0.10
2023-04-22T00:06:28.180Z,0.10
2023-04-22T00:07:22.517Z,0.10
2023-04-22T00:08:10.542Z,0.10
2023-04-22T00:08:51.193Z,0.10
2023-04-22T00:09:31.357Z,0.10
2023-04-22T00:10:12.253Z,0.10
2023-04-22T00:10:53.273Z,0.10
2023-04-22T00:11:34.399Z,0.10
2023-04-22T00:12:15.307Z,0.10
2023-04-22T00:12:56.198Z,0.10
2023-04-22T00:13:37.090Z,0.10
2023-04-22T00:14:18.152Z,0.10
2023-04-22T00:14:58.320Z,0.10
2023-04-22T00:15:39.188Z,0.10
2023-04-22T00:16:19.398Z,0.10
2023-04-22T00:17:00.188Z,0.10
2023-04-22T00:17:40.406Z,0.10
2023-04-22T00:18:20.170Z,0.10
2023-04-22T00:19:00.363Z,0.10
2023-04-22T00:19:41.322Z,0.10
2023-04-22T00:20:23.974Z,0.10
2023-04-22T00:21:05.178Z,0.10
2023-04-22T00:21:45.237Z,0.10
2023-04-22T00:22:26.225Z,0.10
2023-04-22T00:23:06.242Z,0.10
2023-04-22T00:23:47.146Z,0.10
2023-04-22T00:24:27.378Z,0.10
2023-04-22T00:25:08.181Z,0.10
2023-04-22T00:25:48.252Z,0.10
2023-04-22T00:26:28.273Z,0.14
2023-04-22T00:27:08.378Z,0.14
2023-04-22T00:27:48.191Z,0.10
2023-04-22T00:28:29.257Z,0.10
2023-04-22T00:29:10.203Z,0.10
2023-04-22T00:29:50.279Z,0.10
2023-04-22T00:30:31.136Z,0.10
2023-04-22T00:31:11.401Z,0.10
2023-04-22T00:31:53.198Z,0.10
2023-04-22T00:32:33.254Z,0.10
2023-04-22T00:33:14.217Z,0.11
2023-04-22T00:33:54.255Z,0.10
2023-04-22T00:34:34.179Z,0.10
2023-04-22T00:35:15.286Z,0.10
2023-04-22T00:35:56.167Z,0.10
2023-04-22T00:36:36.242Z,0.10
2023-04-22T00:37:17.178Z,0.10
2023-04-22T00:37:59.658Z,0.10
2023-04-22T00:38:40.204Z,0.10
2023-04-22T00:39:20.217Z,0.10
2023-04-22T00:40:01.125Z,0.10
2023-04-22T00:40:41.230Z,0.10
2023-04-22T00:41:22.150Z,0.10
2023-04-22T00:42:02.248Z,0.10
2023-04-22T00:42:44.243Z,0.10
2023-04-22T00:43:25.282Z,0.10
2023-04-22T00:44:07.126Z,0.10
2023-04-22T00:44:48.510Z,0.10
2023-04-22T00:45:29.163Z,0.10
2023-04-22T00:46:09.262Z,0.10
2023-04-22T00:46:49.186Z,0.06
2023-04-22T00:47:29.534Z,0.08
2023-04-22T00:48:10.220Z,0.10
2023-04-22T00:48:50.272Z,0.10
2023-04-22T00:49:34.106Z,0.10
2023-04-22T00:50:15.303Z,0.10
2023-04-22T00:50:55.133Z,0.10
2023-04-22T00:51:35.250Z,0.10
2023-04-22T00:52:15.192Z,0.13
2023-04-22T00:52:55.211Z,0.13
2023-04-22T00:53:36.169Z,0.10
2023-04-22T00:54:16.197Z,0.10
2023-04-22T00:54:56.239Z,0.10
2023-04-22T00:55:36.216Z,0.10
2023-04-22T00:56:18.097Z,0.10
2023-04-22T00:56:58.821Z,0.10
2023-04-22T00:57:41.120Z,0.10
2023-04-22T00:58:21.247Z,0.10
2023-04-22T00:59:02.235Z,0.10
2023-04-22T00:59:42.381Z,0.10
2023-04-22T01:00:23.136Z,0.10
2023-04-22T01:01:04.307Z,0.10
2023-04-22T01:01:45.108Z,0.10
2023-04-22T01:02:25.388Z,0.10
2023-04-22T01:03:07.307Z,0.10
2023-04-22T01:03:48.514Z,0.10
2023-04-22T01:04:29.268Z,0.10
2023-04-22T01:05:09.654Z,0.10
2023-04-22T01:05:51.167Z,0.10
2023-04-22T01:06:32.495Z,0.10
2023-04-22T01:07:13.152Z,0.10
2023-04-22T01:07:53.232Z,0.10
2023-04-22T01:08:36.134Z,0.10
2023-04-22T01:09:16.223Z,0.10
2023-04-22T01:09:57.246Z,0.10
2023-04-22T01:10:37.197Z,0.10
2023-04-22T01:11:17.137Z,0.10
2023-04-22T01:11:57.429Z,0.10
2023-04-22T01:12:38.166Z,0.10
2023-04-22T01:13:18.215Z,0.10
2023-04-22T01:13:59.124Z,0.10
2023-04-22T01:14:39.386Z,0.10
2023-04-22T01:15:19.166Z,0.10
2023-04-22T01:16:00.456Z,0.10
2023-04-22T01:16:42.242Z,0.05
2023-04-22T01:17:24.725Z,0.10
2023-04-22T01:18:07.175Z,0.10
2023-04-22T01:18:47.300Z,0.10
2023-04-22T01:19:28.094Z,0.10
2023-04-22T01:20:12.301Z,0.10
2023-04-22T01:20:52.227Z,0.10
2023-04-22T01:21:34.367Z,0.10
2023-04-22T01:22:15.094Z,0.10
2023-04-22T01:22:58.948Z,0.10
2023-04-22T01:23:40.131Z,0.10
2023-04-22T01:24:20.510Z,0.10
2023-04-22T01:25:01.123Z,0.10
2023-04-22T01:25:43.194Z,0.10
2023-04-22T01:26:24.140Z,0.10
2023-04-22T01:27:04.177Z,0.10
2023-04-22T01:27:46.149Z,0.10
2023-04-22T01:28:26.350Z,0.10
2023-04-22T01:29:09.082Z,0.10
2023-04-22T01:29:49.272Z,0.10
2023-04-22T01:30:30.097Z,0.10
2023-04-22T01:31:11.204Z,0.10
2023-04-22T01:31:52.134Z,0.10
2023-04-22T01:32:32.292Z,0.10
2023-04-22T01:33:14.147Z,0.10
2023-04-22T01:33:54.232Z,0.10
2023-04-22T01:34:35.117Z,0.10
2023-04-22T01:35:17.208Z,0.10
2023-04-22T01:35:58.104Z,0.10
2023-04-22T01:36:38.198Z,0.10
2023-04-22T01:37:18.128Z,0.04
2023-04-22T01:37:58.422Z,0.10
2023-04-22T01:38:40.140Z,0.10
2023-04-22T01:39:20.244Z,0.10
2023-04-22T01:40:00.115Z,0.10
2023-04-22T01:40:41.212Z,0.10
2023-04-22T01:41:21.062Z,0.10
2023-04-22T01:42:02.304Z,0.10
2023-04-22T01:42:43.127Z,0.06
2023-04-22T01:43:23.216Z,0.06
2023-04-22T01:44:06.165Z,0.09
2023-04-22T01:44:46.275Z,0.06
2023-04-22T01:45:27.106Z,0.10
2023-04-22T01:46:12.215Z,0.10
2023-04-22T01:46:53.098Z,0.10
2023-04-22T01:47:33.284Z,0.10
2023-04-22T01:48:14.234Z,0.10
2023-04-22T01:48:54.316Z,0.10
2023-04-22T01:49:34.084Z,0.10
2023-04-22T01:50:15.224Z,0.10
2023-04-22T01:50:56.084Z,0.10
2023-04-22T01:51:37.180Z,0.10
2023-04-22T01:52:18.094Z,0.10
2023-04-22T01:52:59.136Z,0.10
2023-04-22T01:53:39.110Z,0.10
2023-04-22T01:54:19.154Z,0.10
2023-04-22T01:55:00.079Z,0.10
2023-04-22T01:55:40.343Z,0.10
2023-04-22T01:56:21.153Z,0.10
2023-04-22T01:57:23.078Z,0.10
2023-04-22T01:58:19.075Z,0.10
2023-04-22T01:59:00.095Z,0.10
2023-04-22T01:59:40.409Z,0.10
2023-04-22T02:00:22.072Z,0.10
2023-04-22T02:01:02.220Z,0.10
2023-04-22T02:01:42.146Z,0.06
2023-04-22T02:02:22.650Z,0.04
2023-04-22T02:03:04.142Z,0.10
2023-04-22T02:03:45.356Z,0.10
2023-04-22T02:04:26.131Z,0.09
2023-04-22T02:05:06.275Z,0.04
2023-04-22T02:05:47.111Z,0.10
2023-04-22T02:06:27.491Z,0.13
2023-04-22T02:07:08.068Z,0.10
2023-04-22T02:07:48.234Z,0.10
2023-04-22T02:08:28.071Z,0.10
2023-04-22T02:09:09.185Z,0.09
2023-04-22T02:09:50.866Z,0.08
2023-04-22T02:10:31.180Z,0.10
2023-04-22T02:11:12.069Z,0.10
2023-04-22T02:11:52.161Z,0.10
2023-04-22T02:12:32.141Z,0.09
2023-04-22T02:13:12.194Z,0.10
2023-04-22T02:13:52.088Z,0.10
2023-04-22T02:14:32.139Z,0.10
2023-04-22T02:15:13.161Z,0.10
2023-04-22T02:15:53.279Z,0.10
2023-04-22T02:16:33.213Z,0.08
2023-04-22T02:17:13.182Z,0.10
2023-04-22T02:17:54.068Z,0.08
2023-04-22T02:18:34.167Z,0.05
2023-04-22T02:19:15.259Z,0.08
2023-04-22T02:19:55.345Z,0.10
2023-04-22T02:20:35.170Z,0.10
2023-04-22T02:21:15.191Z,0.10
2023-04-22T02:21:56.072Z,0.10
2023-04-22T02:22:36.712Z,0.10
2023-04-22T02:23:18.077Z,0.09
2023-04-22T02:23:58.140Z,0.10
2023-04-22T02:24:38.043Z,0.10
2023-04-22T02:25:20.889Z,0.10
2023-04-22T02:26:02.118Z,0.10
2023-04-22T02:26:43.164Z,0.10
2023-04-22T02:27:24.047Z,0.10
2023-04-22T02:28:05.210Z,0.10
2023-04-22T02:28:45.038Z,0.10
2023-04-22T02:29:25.182Z,0.10
2023-04-22T02:30:05.049Z,0.10
2023-04-22T02:30:45.226Z,0.10
2023-04-22T02:31:26.190Z,0.10
2023-04-22T02:32:07.128Z,0.10
2023-04-22T02:32:48.050Z,0.10
2023-04-22T02:33:28.139Z,0.10
2023-04-22T02:34:08.061Z,0.10
2023-04-22T02:34:48.136Z,0.10
2023-04-22T02:35:29.082Z,0.10
2023-04-22T02:36:09.157Z,0.10
2023-04-22T02:36:49.054Z,0.10
2023-04-22T02:37:29.313Z,0.10
2023-04-22T02:38:10.078Z,0.10
2023-04-22T02:38:50.131Z,0.10
2023-04-22T02:39:32.057Z,0.10
2023-04-22T02:40:13.162Z,0.10
2023-04-22T02:40:54.015Z,0.10
2023-04-22T02:41:34.166Z,0.10
2023-04-22T02:42:14.058Z,0.09
2023-04-22T02:42:54.213Z,0.10
2023-04-22T02:43:35.064Z,0.10
2023-04-22T02:44:15.172Z,0.10
2023-04-22T02:44:55.027Z,0.10
2023-04-22T02:45:35.418Z,0.10
2023-04-22T02:46:19.028Z,0.10
2023-04-22T02:46:59.204Z,0.06
2023-04-22T02:47:40.087Z,0.10
2023-04-22T02:48:21.253Z,0.10
2023-04-22T02:49:01.019Z,0.10
2023-04-22T02:49:41.465Z,0.10
2023-04-22T02:50:23.029Z,0.10
2023-04-22T02:51:03.159Z,0.10
2023-04-22T02:51:46.044Z,0.10
2023-04-22T02:52:26.084Z,0.10
2023-04-22T02:53:06.037Z,0.10
2023-04-22T02:53:46.175Z,0.10
2023-04-22T02:54:26.091Z,0.10
2023-04-22T02:55:06.483Z,0.06
2023-04-22T02:55:48.021Z,0.04
2023-04-22T02:56:28.169Z,0.10
2023-04-22T02:57:09.003Z,0.10
2023-04-22T02:57:49.108Z,0.04
2023-04-22T02:58:36.063Z,0.10
2023-04-22T02:59:10.104Z,0.10
2023-04-22T02:59:57.012Z,0.10
2023-04-22T03:00:31.207Z,0.10
2023-04-22T03:01:19.174Z,0.10
2023-04-22T03:01:53.127Z,0.10
2023-04-22T03:02:40.223Z,0.10
2023-04-22T03:03:14.454Z,0.10
2023-04-22T03:03:56.102Z,0.10
2023-04-22T03:04:38.059Z,0.10
2023-04-22T03:05:17.984Z,0.10
2023-04-22T03:05:58.179Z,0.10
2023-04-22T03:06:39.050Z,0.10
2023-04-22T03:07:19.171Z,0.10
2023-04-22T03:08:01.013Z,0.10
2023-04-22T03:08:41.101Z,0.10
2023-04-22T03:09:21.069Z,0.10
2023-04-22T03:10:01.121Z,0.10
2023-04-22T03:10:41.025Z,0.10
2023-04-22T03:11:21.160Z,0.10
2023-04-22T03:12:02.031Z,0.06
2023-04-22T03:12:42.098Z,0.04
2023-04-22T03:13:21.977Z,0.10
2023-04-22T03:14:02.099Z,0.10
2023-04-22T03:14:42.067Z,0.10
2023-04-22T03:15:22.127Z,0.10
2023-04-22T03:16:02.037Z,0.10
2023-04-22T03:16:43.182Z,0.10
2023-04-22T03:17:23.039Z,0.10
2023-04-22T03:18:03.423Z,0.00
2023-04-22T03:18:42.979Z,0.01
2023-04-22T03:19:23.050Z,0.08
2023-04-22T03:20:03.011Z,0.10
2023-04-22T03:20:43.085Z,0.10
2023-04-22T03:21:23.033Z,0.10
2023-04-22T03:22:03.121Z,0.10
2023-04-22T03:22:43.010Z,0.10
2023-04-22T03:23:23.096Z,0.10
2023-04-22T03:24:03.010Z,0.06
2023-04-22T03:24:43.057Z,0.10
2023-04-22T03:25:22.985Z,0.10
2023-04-22T03:26:03.139Z,0.10
2023-04-22T03:26:42.998Z,0.10
2023-04-22T03:27:23.175Z,0.10
2023-04-22T03:28:03.020Z,0.04
2023-04-22T03:28:43.078Z,0.09
2023-04-22T03:29:22.988Z,0.10
2023-04-22T03:30:03.170Z,0.09
2023-04-22T03:30:43.043Z,0.06
2023-04-22T03:31:23.188Z,0.00
2023-04-22T03:32:03.019Z,0.04
2023-04-22T03:32:44.173Z,0.10
2023-04-22T03:33:24.983Z,0.05
2023-04-22T03:34:05.278Z,0.00
2023-04-22T03:34:45.014Z,0.00
2023-04-22T03:35:26.116Z,0.05
2023-04-22T03:36:06.028Z,0.09
2023-04-22T03:36:47.077Z,0.08
2023-04-22T03:37:26.969Z,0.04
2023-04-22T03:38:07.778Z,0.05
2023-04-22T03:38:47.946Z,0.06
2023-04-22T03:39:28.074Z,0.04
2023-04-22T03:40:07.984Z,0.04
2023-04-22T03:41:29.989Z,0.06
2023-04-22T03:42:10.181Z,0.04
2023-04-22T03:42:49.979Z,0.06
2023-04-22T03:43:30.054Z,0.03
2023-04-22T03:44:09.968Z,0.10
2023-04-22T03:44:50.144Z,0.10
2023-04-22T03:45:30.100Z,0.10
2023-04-22T03:46:10.905Z,0.10
2023-04-22T03:46:51.013Z,0.06
2023-04-22T03:47:31.079Z,0.03
2023-04-22T03:48:11.970Z,0.10
2023-04-22T03:48:52.110Z,0.10
2023-04-22T03:49:32.962Z,0.10
2023-04-22T03:50:14.037Z,0.10
2023-04-22T03:50:53.920Z,0.10
2023-04-22T03:51:34.098Z,0.10
2023-04-22T03:52:15.007Z,0.10
2023-04-22T03:52:55.077Z,0.10
2023-04-22T03:53:35.976Z,0.10
2023-04-22T03:54:16.139Z,0.06
2023-04-22T03:54:55.968Z,0.00
2023-04-22T03:55:36.358Z,0.04
2023-04-22T03:56:16.962Z,0.05
2023-04-22T03:56:57.028Z,0.05
2023-04-22T03:57:36.994Z,0.00
2023-04-22T03:58:17.021Z,0.00
2023-04-22T03:58:57.948Z,0.00
2023-04-22T03:59:38.443Z,0.00
2023-04-22T04:00:20.020Z,0.03
2023-04-22T04:01:00.089Z,0.05
2023-04-22T04:01:39.980Z,0.05
2023-04-22T04:02:20.300Z,0.00
2023-04-22T04:03:00.047Z,0.00
2023-04-22T04:03:40.992Z,0.04
2023-04-22T04:04:22.142Z,0.10
2023-04-22T04:05:02.764Z,0.06
2023-04-22T04:05:44.073Z,0.00
2023-04-22T04:06:24.057Z,0.04
2023-04-22T04:07:04.916Z,0.05
2023-04-22T04:07:45.040Z,0.10
2023-04-22T04:08:26.035Z,0.10
2023-04-22T04:09:06.143Z,0.00
2023-04-22T04:09:45.969Z,0.05
2023-04-22T04:10:26.070Z,0.00
2023-04-22T04:11:05.946Z,0.10
2023-04-22T04:11:46.031Z,0.10
2023-04-22T04:12:26.931Z,0.10
2023-04-22T04:13:07.053Z,0.04
2023-04-22T04:13:47.225Z,0.06
2023-04-22T04:14:28.153Z,0.09
2023-04-22T04:15:07.940Z,0.10
2023-04-22T04:15:48.080Z,0.10
2023-04-22T04:16:29.026Z,0.09
2023-04-22T04:17:09.802Z,0.10
2023-04-22T04:17:51.022Z,0.10
2023-04-22T04:18:31.024Z,0.10
2023-04-22T04:19:13.039Z,0.03
2023-04-22T04:19:53.087Z,0.06
2023-04-22T04:20:33.931Z,0.04
2023-04-22T04:21:14.026Z,0.10
2023-04-22T04:21:53.973Z,0.09
2023-04-22T04:22:35.026Z,0.00
2023-04-22T04:23:14.926Z,0.04
2023-04-22T04:23:55.078Z,0.10
2023-04-22T04:24:35.932Z,0.10
2023-04-22T04:25:16.031Z,0.08
2023-04-22T04:25:56.989Z,0.00
2023-04-22T04:26:37.889Z,0.04
2023-04-22T04:27:18.949Z,0.10
2023-04-22T04:27:59.082Z,0.10
2023-04-22T04:28:40.922Z,0.10
2023-04-22T04:29:21.047Z,0.09
2023-04-22T04:30:01.927Z,0.08
2023-04-22T04:30:42.358Z,0.10
2023-04-22T04:31:21.953Z,0.10
2023-04-22T04:32:02.066Z,0.10
2023-04-22T04:32:43.013Z,0.10
2023-04-22T04:33:23.121Z,0.10
2023-04-22T04:34:06.921Z,0.10
2023-04-22T04:34:47.232Z,0.10
2023-04-22T04:35:27.957Z,0.06
2023-04-22T04:36:08.807Z,0.04
2023-04-22T04:36:49.913Z,0.06
2023-04-22T04:37:30.075Z,0.04
2023-04-22T04:38:12.947Z,0.10
2023-04-22T04:38:55.209Z,0.10
2023-04-22T04:39:36.947Z,0.10
2023-04-22T04:40:17.596Z,0.10
2023-04-22T04:40:58.922Z,0.10
2023-04-22T04:41:39.019Z,0.10
2023-04-22T04:42:20.968Z,0.06
2023-04-22T04:43:03.438Z,0.00
2023-04-22T04:43:43.889Z,0.09
2023-04-22T04:44:24.056Z,0.10
2023-04-22T04:45:04.938Z,0.10
2023-04-22T04:45:49.086Z,0.10
2023-04-22T04:46:30.000Z,0.10
2023-04-22T04:47:10.035Z,0.10
2023-04-22T04:47:49.946Z,0.10
2023-04-22T04:48:30.033Z,0.10
2023-04-22T04:49:15.920Z,0.10
2023-04-22T04:49:58.576Z,0.10
2023-04-22T04:50:39.889Z,0.10
2023-04-22T04:51:20.572Z,0.10
2023-04-22T04:52:01.748Z,0.10
2023-04-22T04:52:41.976Z,0.06
2023-04-22T04:53:22.914Z,0.04
2023-04-22T04:54:16.909Z,0.10
2023-04-22T04:55:10.889Z,0.10
2023-04-22T04:56:04.911Z,0.10
2023-04-22T04:56:58.886Z,0.10
2023-04-22T04:57:39.882Z,0.10
2023-04-22T04:58:20.085Z,0.10
2023-04-22T04:58:59.884Z,0.06
2023-04-22T04:59:40.415Z,0.00
2023-04-22T05:00:21.925Z,0.01
2023-04-22T05:01:02.030Z,0.01
2023-04-22T05:01:42.980Z,0.04
2023-04-22T05:02:23.162Z,0.01
2023-04-22T05:02:57.122Z,0.05
2023-04-22T05:03:44.079Z,0.06
2023-04-22T05:04:18.162Z,0.00
2023-04-22T05:05:04.991Z,0.05
2023-04-22T05:05:38.965Z,0.04
2023-04-22T05:06:25.888Z,0.06
2023-04-22T05:07:00.100Z,0.04
2023-04-22T05:07:46.918Z,0.06
2023-04-22T05:08:20.965Z,0.04
2023-04-22T05:09:08.207Z,0.10
2023-04-22T05:09:43.088Z,0.10
2023-04-22T05:10:30.897Z,0.10
2023-04-22T05:11:05.006Z,0.10
2023-04-22T05:11:51.881Z,0.10
2023-04-22T05:12:26.508Z,0.10
2023-04-22T05:13:06.886Z,0.10
2023-04-22T05:13:46.981Z,0.08
2023-04-22T05:14:26.871Z,0.08
2023-04-22T05:15:07.039Z,0.00
2023-04-22T05:15:46.893Z,0.09
2023-04-22T05:16:27.023Z,0.10
2023-04-22T05:17:06.899Z,0.10
2023-04-22T05:17:47.029Z,0.10
2023-04-22T05:18:27.895Z,0.04
2023-04-22T05:19:08.560Z,0.06
2023-04-22T05:19:48.890Z,0.10
2023-04-22T05:20:29.028Z,0.06
2023-04-22T05:21:10.876Z,0.03
2023-04-22T05:21:50.984Z,0.01
2023-04-22T05:22:31.838Z,0.03
2023-04-22T05:23:11.985Z,0.03
2023-04-22T05:23:52.948Z,0.10
2023-04-22T05:24:32.988Z,0.06
2023-04-22T05:25:13.889Z,0.10
2023-04-22T05:25:53.974Z,0.06
2023-04-22T05:26:33.886Z,0.10
2023-04-22T05:27:15.109Z,0.10
2023-04-22T05:27:54.871Z,0.10
2023-04-22T05:28:34.948Z,0.08
2023-04-22T05:29:14.884Z,0.04
2023-04-22T05:29:55.947Z,0.06
2023-04-22T05:30:35.887Z,0.06
2023-04-22T05:31:16.107Z,0.09
2023-04-22T05:31:56.959Z,0.10
2023-04-22T05:32:36.958Z,0.10
2023-04-22T05:33:16.896Z,0.06
2023-04-22T05:33:56.934Z,0.00
2023-04-22T05:34:37.885Z,0.00
2023-04-22T05:35:17.952Z,0.04
2023-04-22T05:35:58.885Z,0.10
2023-04-22T05:36:38.989Z,0.10
2023-04-22T05:37:19.888Z,0.10
2023-04-22T05:37:59.946Z,0.10
2023-04-22T05:38:39.849Z,0.10
2023-04-22T05:39:19.980Z,0.10
2023-04-22T05:39:59.927Z,0.10
2023-04-22T05:40:40.565Z,0.10
2023-04-22T05:41:21.861Z,0.10
2023-04-22T05:42:02.676Z,0.10
2023-04-22T05:42:42.847Z,0.10
2023-04-22T05:43:22.969Z,0.10
2023-04-22T05:44:02.870Z,0.10
2023-04-22T05:44:42.994Z,0.10
2023-04-22T05:45:23.863Z,0.09
2023-04-22T05:46:04.028Z,0.06
2023-04-22T05:46:43.874Z,0.00
2023-04-22T05:47:23.993Z,0.05
2023-04-22T05:48:03.901Z,0.10
2023-04-22T05:48:43.973Z,0.10
2023-04-22T05:49:24.830Z,0.10
2023-04-22T05:50:05.128Z,0.10
2023-04-22T05:50:44.921Z,0.10
2023-04-22T05:51:24.940Z,0.10
2023-04-22T05:52:04.870Z,0.10
2023-04-22T05:52:44.958Z,0.10
2023-04-22T05:53:25.948Z,0.10
2023-04-22T05:54:06.073Z,0.10
2023-04-22T05:54:45.878Z,0.10
2023-04-22T05:55:25.935Z,0.09
2023-04-22T05:56:05.894Z,0.08
2023-04-22T05:56:47.978Z,0.10
2023-04-22T05:57:28.836Z,0.06
2023-04-22T05:58:08.958Z,0.04
2023-04-22T05:58:48.894Z,0.10
2023-04-22T05:59:29.025Z,0.10
2023-04-22T06:00:11.827Z,0.10
2023-04-22T06:00:51.978Z,0.10
2023-04-22T06:01:32.859Z,0.10
2023-04-22T06:02:13.104Z,0.10
2023-04-22T06:02:53.021Z,0.10
2023-04-22T06:03:33.152Z,0.09
2023-04-22T06:04:14.011Z,0.04
2023-04-22T06:04:54.212Z,0.10
2023-04-22T06:05:35.871Z,0.10
2023-04-22T06:06:15.932Z,0.10
2023-04-22T06:06:57.866Z,0.10
2023-04-22T06:07:37.976Z,0.10
2023-04-22T06:08:17.903Z,0.10
2023-04-22T06:08:58.483Z,0.10
2023-04-22T06:09:40.128Z,0.10
2023-04-22T06:10:20.910Z,0.10
2023-04-22T06:11:00.860Z,0.10
2023-04-22T06:11:40.977Z,0.10
2023-04-22T06:12:20.857Z,0.06
2023-04-22T06:13:01.300Z,0.04
2023-04-22T06:13:41.821Z,0.10
2023-04-22T06:14:22.044Z,0.10
2023-04-22T06:15:01.831Z,0.10
2023-04-22T06:15:41.956Z,0.10
2023-04-22T06:16:22.832Z,0.10
2023-04-22T06:17:02.941Z,0.10
2023-04-22T06:17:43.904Z,0.10
2023-04-22T06:18:23.997Z,0.10
2023-04-22T06:19:03.817Z,0.10
2023-04-22T06:19:43.908Z,0.10
2023-04-22T06:20:23.804Z,0.10
2023-04-22T06:21:03.895Z,0.10
2023-04-22T06:21:46.800Z,0.10
2023-04-22T06:22:26.970Z,0.10
2023-04-22T06:23:06.854Z,0.10
2023-04-22T06:23:47.920Z,0.10
2023-04-22T06:24:28.827Z,0.10
2023-04-22T06:25:09.909Z,0.10
2023-04-22T06:25:50.851Z,0.10
2023-04-22T06:26:31.017Z,0.10
2023-04-22T06:27:10.778Z,0.16
2023-04-22T06:27:50.886Z,0.20
2023-04-22T06:28:31.889Z,0.15
2023-04-22T06:29:11.946Z,0.10
2023-04-22T06:29:51.816Z,0.10
2023-04-22T06:30:33.061Z,0.10
2023-04-22T06:31:12.913Z,0.14
2023-04-22T06:31:54.623Z,0.16
2023-04-22T06:32:37.789Z,0.10
2023-04-22T06:33:17.900Z,0.10
2023-04-22T06:33:58.788Z,0.10
2023-04-22T06:34:38.857Z,0.10
2023-04-22T06:35:18.853Z,0.10
2023-04-22T06:35:58.951Z,0.10
2023-04-22T06:36:43.877Z,0.10
2023-04-22T06:37:26.937Z,0.13
2023-04-22T06:38:07.814Z,0.10
2023-04-22T06:38:47.858Z,0.10
2023-04-22T06:39:27.791Z,0.10
2023-04-22T06:40:07.953Z,0.10
2023-04-22T06:40:47.759Z,0.11
2023-04-22T06:41:28.892Z,0.16
2023-04-22T06:42:09.766Z,0.10
2023-04-22T06:42:49.911Z,0.10
2023-04-22T06:43:29.784Z,0.10
2023-04-22T06:44:11.903Z,0.10
2023-04-22T06:44:51.783Z,0.10
2023-04-22T06:45:31.856Z,0.10
2023-04-22T06:46:12.769Z,0.10
2023-04-22T06:46:53.773Z,0.10
2023-04-22T06:47:34.855Z,0.10
2023-04-22T06:48:28.795Z,0.10
2023-04-22T06:49:22.831Z,0.10
2023-04-22T06:50:09.858Z,0.10
2023-04-22T06:50:43.901Z,0.11
2023-04-22T06:51:30.779Z,0.15
2023-04-22T06:52:04.855Z,0.10
2023-04-22T06:52:51.812Z,0.10
2023-04-22T06:53:25.888Z,0.10
2023-04-22T06:54:13.805Z,0.10
2023-04-22T06:54:47.838Z,0.10
2023-04-22T06:55:34.793Z,0.10
2023-04-22T06:56:08.850Z,0.11
2023-04-22T06:56:56.775Z,0.10
2023-04-22T06:57:30.916Z,0.11
2023-04-22T06:58:17.830Z,0.10
2023-04-22T06:58:51.867Z,0.10
2023-04-22T06:59:38.981Z,0.10
2023-04-22T07:00:13.862Z,0.10
2023-04-22T07:00:53.815Z,0.16
2023-04-22T07:01:33.946Z,0.10
2023-04-22T07:02:15.008Z,0.08
2023-04-22T07:02:55.003Z,0.10
2023-04-22T07:03:36.032Z,0.10
2023-04-22T07:04:17.047Z,0.14
2023-04-22T07:04:56.764Z,0.16
2023-04-22T07:05:39.807Z,0.10
2023-04-22T07:06:20.809Z,0.10
2023-04-22T07:07:00.924Z,0.10
2023-04-22T07:07:40.744Z,0.16
2023-04-22T07:08:20.919Z,0.10
2023-04-22T07:09:01.816Z,0.10
2023-04-22T07:09:42.062Z,0.10
2023-04-22T07:10:22.863Z,0.19
2023-04-22T07:11:04.881Z,0.20
2023-04-22T07:11:45.831Z,0.14
2023-04-22T07:12:26.385Z,0.19
2023-04-22T07:13:06.826Z,0.15
2023-04-22T07:13:46.889Z,0.11
2023-04-22T07:14:27.766Z,0.14
2023-04-22T07:15:09.386Z,0.15
2023-04-22T07:15:49.781Z,0.14
2023-04-22T07:16:29.924Z,0.20
2023-04-22T07:17:09.780Z,0.14
2023-04-22T07:17:51.112Z,0.16
2023-04-22T07:18:31.773Z,0.10
2023-04-22T07:19:11.996Z,0.10
2023-04-22T07:19:51.798Z,0.10
2023-04-22T07:20:31.900Z,0.14
2023-04-22T07:21:12.753Z,0.16
2023-04-22T07:21:52.909Z,0.19
2023-04-22T07:22:33.775Z,0.10
2023-04-22T07:23:13.860Z,0.14
2023-04-22T07:23:54.741Z,0.10
2023-04-22T07:24:34.875Z,0.14
2023-04-22T07:25:15.723Z,0.16
2023-04-22T07:25:55.822Z,0.15
2023-04-22T07:26:38.719Z,0.14
2023-04-22T07:27:18.801Z,0.20
2023-04-22T07:27:58.798Z,0.20
2023-04-22T07:28:39.870Z,0.17
2023-04-22T07:29:20.738Z,0.13
2023-04-22T07:30:00.905Z,0.10
2023-04-22T07:30:41.747Z,0.16
2023-04-22T07:31:21.919Z,0.15
2023-04-22T07:32:02.844Z,0.10
2023-04-22T07:32:42.875Z,0.19
2023-04-22T07:33:22.822Z,0.20
2023-04-22T07:34:02.871Z,0.20
2023-04-22T07:34:43.761Z,0.20
2023-04-22T07:35:23.925Z,0.16
2023-04-22T07:36:04.014Z,0.10
2023-04-22T07:36:43.834Z,0.11
2023-04-22T07:37:23.722Z,0.11
2023-04-22T07:38:04.036Z,0.14
2023-04-22T07:38:44.807Z,0.14
2023-04-22T07:39:25.155Z,0.20
2023-04-22T07:40:04.780Z,0.16
2023-04-22T07:40:46.861Z,0.10
2023-04-22T07:41:26.774Z,0.14
2023-04-22T07:42:07.392Z,0.20
2023-04-22T07:42:48.714Z,0.20
2023-04-22T07:43:28.908Z,0.20
2023-04-22T07:44:09.932Z,0.19
2023-04-22T07:44:49.852Z,0.16
2023-04-22T07:45:29.730Z,0.14
2023-04-22T07:46:09.850Z,0.20
2023-04-22T07:46:50.713Z,0.16
2023-04-22T07:47:31.255Z,0.10
2023-04-22T07:48:11.725Z,0.14
2023-04-22T07:48:51.816Z,0.20
2023-04-22T07:49:31.738Z,0.20
2023-04-22T07:50:12.861Z,0.20
2023-04-22T07:50:53.704Z,0.20
2023-04-22T07:51:33.807Z,0.17
2023-04-22T07:52:13.720Z,0.16
2023-04-22T07:52:53.870Z,0.15
2023-04-22T07:53:33.762Z,0.20
2023-04-22T07:54:13.849Z,0.20
2023-04-22T07:54:54.772Z,0.20
2023-04-22T07:55:34.881Z,0.16
2023-04-22T07:56:15.711Z,0.11
2023-04-22T07:56:57.487Z,0.20
2023-04-22T07:57:39.714Z,0.20
2023-04-22T07:58:19.773Z,0.20
2023-04-22T07:59:00.698Z,0.20
2023-04-22T07:59:41.142Z,0.20
2023-04-22T08:00:22.728Z,0.20
2023-04-22T08:01:02.918Z,0.20
2023-04-22T08:01:42.709Z,0.20
2023-04-22T08:02:54.930Z,0.20
2023-04-22T08:03:35.822Z,0.20
2023-04-22T08:04:16.972Z,0.20
2023-04-22T08:04:58.738Z,0.20
2023-04-22T08:05:38.712Z,0.16
2023-04-22T08:06:12.787Z,0.17
2023-04-22T08:07:03.446Z,0.16
2023-04-22T08:07:40.892Z,0.16
2023-04-22T08:08:27.768Z,0.20
2023-04-22T08:09:01.797Z,0.20
2023-04-22T08:09:48.707Z,0.20
2023-04-22T08:10:22.914Z,0.20
2023-04-22T08:11:03.725Z,0.20
2023-04-22T08:11:43.869Z,0.20
2023-04-22T08:12:24.715Z,0.20
2023-04-22T08:13:04.831Z,0.20
2023-04-22T08:13:44.713Z,0.20
2023-04-22T08:14:24.872Z,0.20
2023-04-22T08:15:04.704Z,0.20
2023-04-22T08:15:44.885Z,0.20
2023-04-22T08:16:25.817Z,0.14
2023-04-22T08:17:05.925Z,0.20
2023-04-22T08:17:45.696Z,0.20
2023-04-22T08:18:25.900Z,0.20
2023-04-22T08:19:05.696Z,0.20
2023-04-22T08:19:46.835Z,0.16
2023-04-22T08:20:27.732Z,0.14
2023-04-22T08:21:08.915Z,0.20
2023-04-22T08:21:50.770Z,0.20
2023-04-22T08:22:32.539Z,0.20
2023-04-22T08:23:13.746Z,0.20
2023-04-22T08:23:54.887Z,0.20
2023-04-22T08:24:34.711Z,0.16
2023-04-22T08:25:16.142Z,0.20
2023-04-22T08:25:56.701Z,0.20
2023-04-22T08:26:37.122Z,0.19
2023-04-22T08:27:17.754Z,0.14
2023-04-22T08:27:58.794Z,0.20
2023-04-22T08:28:38.724Z,0.20
2023-04-22T08:29:19.992Z,0.20
2023-04-22T08:29:59.738Z,0.20
2023-04-22T08:30:40.280Z,0.20
2023-04-22T08:31:20.785Z,0.20
2023-04-22T08:32:01.811Z,0.20
2023-04-22T08:32:42.817Z,0.20
2023-04-22T08:33:25.892Z,0.20
2023-04-22T08:34:06.737Z,0.20
2023-04-22T08:34:46.794Z,0.20
2023-04-22T08:35:27.747Z,0.20
2023-04-22T08:36:08.967Z,0.20
2023-04-22T08:36:49.698Z,0.20
2023-04-22T08:37:29.785Z,0.20
2023-04-22T08:38:10.829Z,0.20
2023-04-22T08:38:50.806Z,0.20
2023-04-22T08:39:30.737Z,0.20
2023-04-22T08:40:12.083Z,0.20
2023-04-22T08:40:53.717Z,0.20
2023-04-22T08:41:33.872Z,0.20
2023-04-22T08:42:15.724Z,0.20
2023-04-22T08:42:56.893Z,0.15
2023-04-22T08:43:37.737Z,0.20
2023-04-22T08:44:18.143Z,0.20
2023-04-22T08:44:58.771Z,0.20
2023-04-22T08:45:38.806Z,0.20
2023-04-22T08:46:21.743Z,0.20
2023-04-22T08:47:03.125Z,0.20
2023-04-22T08:47:45.806Z,0.20
2023-04-22T08:48:26.944Z,0.20
2023-04-22T08:49:10.730Z,0.20
2023-04-22T08:49:52.846Z,0.20
2023-04-22T08:50:33.714Z,0.20
2023-04-22T08:51:16.332Z,0.20
2023-04-22T08:51:57.707Z,0.20
2023-04-22T08:52:38.839Z,0.20
2023-04-22T08:53:21.789Z,0.20
2023-04-22T08:54:03.862Z,0.20
2023-04-22T08:54:43.743Z,0.20
2023-04-22T08:55:23.839Z,0.20
2023-04-22T08:56:03.676Z,0.20
2023-04-22T08:56:47.733Z,0.20
2023-04-22T08:57:28.694Z,0.20
2023-04-22T08:58:08.841Z,0.20
2023-04-22T08:58:49.709Z,0.20
2023-04-22T08:59:29.784Z,0.20
2023-04-22T09:00:12.706Z,0.20
2023-04-22T09:00:52.834Z,0.20
2023-04-22T09:01:34.762Z,0.20
2023-04-22T09:02:26.862Z,0.20
2023-04-22T09:03:09.767Z,0.20
2023-04-22T09:03:50.106Z,0.20
2023-04-22T09:04:31.802Z,0.20
2023-04-22T09:05:20.716Z,0.20